Jump to content
Les Forums d'Infoclimat

Ce tchat, hébergé sur une plateforme indépendante d'Infoclimat, est géré et modéré par une équipe autonome, sans lien avec l'Association.
Un compte séparé du site et du forum d'Infoclimat est nécessaire pour s'y connecter.

Suivi de la tempête "Klaus" dans le Sud de la France


Recommended Posts

Cela n' a rien d' extraordinaire pour le Mont Aigoual, enfin tout est relatif...

Merci de la donnée en tt cas.

Exactement, on y a testé des anémomètres destinés aux missions antarctiques! Je profite de ce clin d'oeil pour vous féliciter de vos analyses. Admiration, Madame.
Link to post
Share on other sites
  • Replies 2k
  • Created
  • Last Reply

Top Posters In This Topic

Posted
Abbeville centre (Somme)

Le prochain classement devrait voir passer l'Aigoual et le Cap Béar en tête...

N'oubliez pas que Perpignan est HS, il aurait peut-être des valeurs intéressantes à livrer!
Link to post
Share on other sites

Exactement, on y a testé des anémomètres destinés aux missions antarctiques! Je profite de ce clin d'oeil pour vous féliciter de vos analyses. Admiration, Madame.

Merci beaucoup , c'est super gentil , attention chez vous dans le 34! default_smile.png/emoticons/smile@2x.png 2x" width="20" height="20">
Link to post
Share on other sites
Posted
Marseille (13) (alt : 40m) et Gap (05) (alt : 780m)

La Rafale à 184km/h sur Perpignan est confirmé par France info à l'instant default_happy.png/emoticons/happy@2x.png 2x" width="20" height="20">

Link to post
Share on other sites
Posted
Lagardelle sur Leze

Salut le vent ici n'est toujours pas tempetueux mais la mer commence a bien se former de belles vagues par houle d'ouest deferlent sur les plages .

Link to post
Share on other sites

La Rafale à 184km/h sur Perpignan est confirmé par France info à l'instant default_happy.png/emoticons/happy@2x.png 2x" width="20" height="20">

Oui c'est vrai c'est confirmé default_happy.png/emoticons/happy@2x.png 2x" width="20" height="20"> après possible que cela soit un bug ?

Grégory

Link to post
Share on other sites
Posted
Remiremont - Porte des Hautes Vosges (400 m)

La plaine à la confluence entre Tarn et Aveyron est inondée dans le secteur de Caussade, l'Aveyron commençant à déborder de son lit... Quand on sait qu'il est encaissé de 4 à 5 mètres dans ces coins là default_huh.png

La plupart des cours d'eau de la région sont sous surveillance étroite et la situation est inquiétante.

La neige commence à faire son apparition sur les hauteurs de l'Aveyron, du Cantal et de la Corrèze. Dans le Cantal, des témoignages font état d'une véritable tempête de neige... default_rolleyes.gif

D'ailleurs, Cantal, Puy de Dôme et Hte Loire sont placés en vigilance orange à la neige.

Source Sud Radio

Link to post
Share on other sites

Sur les détails de la station, 151 km/h est le relevé sur 10 minutes.

Météociel confirme 183 km/h.

LFMP 241000Z 29019G31KT 250V330 9999 FEW010 SCT110 14/03 Q0985 BECMG 32050G90KT=

LFMP 241030Z 29039G59KT 9999 SCT033 SCT140 BKN250 15/02 Q0985 BECMG 32050G90KT=

LFMP 241100Z 29035G49KT 9999 SCT033 SCT066 BKN250 14/01 Q0985 BECMG 32050G90KT=

LFMP 241130Z 29036G59KT 260V320 9999 SCT033 SCT066 BKN250 14/00 Q0984 BECMG 32050G90KT=

LFMP 241204Z 29027G82KT 9999 SCT033 SCT066 BKN250 13/M00 Q0984 BECMG 32050G90KT=

LFMP 241300Z 9999 BKN023 BKN066 12/01 Q0985 BECMG 32050G90KT=

Le METAR dit BECMG G90KT (90 noeuds = 167 km/h).

Donc c'est une prévi, pas une obs. L'obs réelle est de G82 donc 151 km/h.

Link to post
Share on other sites

A Toulouse, les 100 km/h sont désormais approchés ou atteints depuis bientôt 8 heures consécutives ! default_huh.png

C' est d' ailleurs surprenant, je me suis faite la mm reflexion qd ce matin à midi environ le vent soufflait à Biarritz à 100 environ alors que nous attaquions la 8 ème heure de forte agitation.

Orage à Blagnac cette nuit je crois.

Link to post
Share on other sites

SI SI SI SI SI

car les arbres se sont fragilisés et comme il reste des rafales, les arbres peuvent tomber + facilement. Il reste encore beaucoup de vent.

Orange (et encore!)alors mais pas rouge. Ce sont des conséquences et les alertes c'est par rapport à des seuils qui ne sont plus atteints. Car sinon, les arbres vont être fragilisés pour un bout de temps et l'alerte rouge va pas durer 1 mois.
Link to post
Share on other sites
Posted
Saint-Louis 68 sud du Haut-Rhin, région des 3 frontières

En tout cas sur le littoral catalan entre Collioure et Cerbère sa doit bien déferler niveau vagues! Les creux doivent être pas mal!

Link to post
Share on other sites
Posted
Aix-en-Provence (et fût un temps avec des relevés sur Ventabren)

Avec tous ces ventilateurs, la Corse est-elle menacée par des vagues d'ampleur inhabituelle également? La houle va taper fort sur la côte ouest...

A+!

Alex.

Link to post
Share on other sites

C' est clair pour le 64 en tout cas ; on doit etre à 50 km/h la...

Klaus is die here... default_sad.png/emoticons/sad@2x.png 2x" width="20" height="20">

Nein, Klaüs ist noch ein bischen erlebt... default_happy.png/emoticons/happy@2x.png 2x" width="20" height="20">

Sinon, ça fait plusieurs heures que je suis le fil des infos sur infoclimat, impressionnant ...Et sincèrement désolé pour tous ceux qui triment sous le poing de Klaus...

Un gros coucou d'Alsace où tout est calme...

default_clover.gif

courage

Link to post
Share on other sites

Orange (et encore!)alors mais pas rouge. Ce sont des conséquences et les alertes c'est par rapport à des seuils qui ne sont plus atteints. Car sinon, les arbres vont être fragilisés pour un bout de temps et l'alerte rouge va pas durer 1 mois.

C'est maintenu pr inciter les gens à ne pas sortir pour le moment, vu les dégâts.
Link to post
Share on other sites

EN marge de la tempete qqun peut il m'expliquer a quoi correspondent les petits systemes tout en haut a gauche de cette animation IR de SAT 24??? On dirait des petites perturbations s'enroulant autour d'un minimum depressionaire............

http://www.sat24.com/image.ashx?country=eu...loop&sat=ir

Tout simplement une dépression qui nous concernera demain.
Link to post
Share on other sites
Posted
Saint-Louis 68 sud du Haut-Rhin, région des 3 frontières

Avec tous ces ventilateurs, la Corse est-elle menacée par des vagues d'ampleur inhabituelle également? La houle va taper fort sur la côte ouest...

A+!

Alex.

MF prévoit une mer forte à très forte cette après midi et très forte à grosse pour cette nuit sur la côte occidentale Corse, donc sa risque de bien donner!

Link to post
Share on other sites

Create an account or sign in to comment

You need to be a member in order to leave a comment

Create an account

Sign up for a new account in our community. It's easy!

Register a new account

Sign in

Already have an account? Sign in here.

Sign In Now
  • Recently Browsing   0 members

    No registered users viewing this page.

×
×
  • Create New...